Time;durP1;ratioP1;P1;durP2;ratioP2;P2;SDS_P1;SDS_P2;PMS_P1;PMS_P2;Temp;Humidity;BMP_temperature;BMP_pressure;BME280_temperature;BME280_humidity;BME280_pressure;Samples;Min_cycle;Max_cycle;Signal;HPM_P1;HPM_P2
2021/11/29 00:00:16;;;;;;;36.97;18.97;;;1.20;1.00;;;;;;5015677;28;20457;-62
2021/11/29 00:02:46;;;;;;;32.67;17.47;;;1.10;1.00;;;;;;5015279;28;20473;-62
2021/11/29 00:05:12;;;;;;;37.80;18.17;;;1.10;1.00;;;;;;5015591;28;20458;-62
2021/11/29 00:07:40;;;;;;;39.73;18.33;;;1.10;1.00;;;;;;5015781;28;20531;-62
2021/11/29 00:10:08;;;;;;;32.27;17.57;;;1.00;1.00;;;;;;5015676;28;20453;-62
2021/11/29 00:12:35;;;;;;;37.97;18.27;;;1.00;1.00;;;;;;5015127;28;20477;-62
2021/11/29 00:15:02;;;;;;;37.43;18.60;;;0.90;1.00;;;;;;5015352;28;20520;-62
2021/11/29 00:17:28;;;;;;;37.93;19.27;;;0.90;1.00;;;;;;5015684;28;20459;-62
2021/11/29 00:19:55;;;;;;;41.60;18.17;;;0.90;1.00;;;;;;5015552;28;20476;-62
2021/11/29 00:22:22;;;;;;;38.47;17.77;;;0.90;1.00;;;;;;5014854;28;20484;-62
2021/11/29 00:24:50;;;;;;;32.30;18.30;;;0.90;1.00;;;;;;5015293;28;20457;-62
2021/11/29 00:27:16;;;;;;;33.20;16.97;;;0.90;1.00;;;;;;5015271;28;20484;-60
2021/11/29 00:29:44;;;;;;;31.37;17.03;;;0.90;1.00;;;;;;5015050;28;20445;-61
2021/11/29 00:32:11;;;;;;;35.73;17.83;;;0.80;1.00;;;;;;5014813;28;20458;-61
2021/11/29 00:34:37;;;;;;;36.90;17.50;;;0.80;1.00;;;;;;5014770;28;21018;-61
2021/11/29 00:37:05;;;;;;;30.67;16.60;;;0.80;1.00;;;;;;5014975;28;20452;-61
2021/11/29 00:39:32;;;;;;;37.50;16.53;;;0.70;1.00;;;;;;5015263;28;20455;-62
2021/11/29 00:42:00;;;;;;;30.37;16.50;;;0.70;1.00;;;;;;5014460;28;20456;-62
2021/11/29 00:44:27;;;;;;;26.00;14.50;;;0.60;1.00;;;;;;5015247;28;20442;-62
2021/11/29 00:46:54;;;;;;;27.53;15.00;;;0.60;1.00;;;;;;5015031;28;20569;-62
2021/11/29 00:49:20;;;;;;;31.57;15.63;;;0.60;1.00;;;;;;5015077;28;20509;-62
2021/11/29 00:51:47;;;;;;;30.40;15.70;;;0.60;1.00;;;;;;5014285;28;20465;-62
2021/11/29 00:54:14;;;;;;;34.10;16.00;;;0.60;1.00;;;;;;5014743;28;20517;-62
2021/11/29 00:56:41;;;;;;;29.47;16.23;;;0.50;1.00;;;;;;5014518;28;20545;-62
2021/11/29 00:59:09;;;;;;;30.50;15.23;;;0.50;1.00;;;;;;5014205;28;20512;-62
2021/11/29 01:01:36;;;;;;;38.13;17.00;;;0.50;1.00;;;;;;5014418;28;20521;-62
2021/11/29 01:04:03;;;;;;;29.27;16.07;;;0.40;1.00;;;;;;5014567;28;20982;-62
2021/11/29 01:06:29;;;;;;;28.80;15.67;;;0.40;1.00;;;;;;5014744;28;20457;-61
2021/11/29 01:08:56;;;;;;;34.33;16.30;;;0.40;1.00;;;;;;5014357;28;21182;-61
2021/11/29 01:11:23;;;;;;;28.10;15.97;;;0.40;1.00;;;;;;5013999;28;21001;-61
2021/11/29 01:13:49;;;;;;;25.17;14.47;;;0.40;1.00;;;;;;5014257;28;20479;-61
2021/11/29 01:16:17;;;;;;;26.87;14.37;;;0.40;1.00;;;;;;5014502;28;20446;-61
2021/11/29 01:18:44;;;;;;;28.70;14.53;;;0.30;1.00;;;;;;5014180;28;20492;-61
2021/11/29 01:21:11;;;;;;;24.10;13.10;;;0.30;1.00;;;;;;5013797;28;20514;-61
2021/11/29 01:23:37;;;;;;;23.13;13.57;;;0.30;1.00;;;;;;5014196;28;20472;-62
2021/11/29 01:26:04;;;;;;;23.57;13.10;;;0.40;1.00;;;;;;5014404;28;20462;-61
2021/11/29 01:28:32;;;;;;;25.07;13.57;;;0.30;1.00;;;;;;5013975;28;20490;-62
2021/11/29 01:30:58;;;;;;;22.43;12.10;;;0.20;9.40;;;;;;5014048;28;20463;-62
2021/11/29 01:33:26;;;;;;;27.03;12.70;;;0.20;1.00;;;;;;5013500;28;20475;-62
2021/11/29 01:35:53;;;;;;;22.57;12.50;;;0.20;1.00;;;;;;5013897;28;20470;-61
2021/11/29 01:38:20;;;;;;;22.07;12.30;;;0.30;1.00;;;;;;5013606;28;20454;-62
2021/11/29 01:40:47;;;;;;;26.67;13.33;;;0.30;1.00;;;;;;5013870;28;20459;-61
2021/11/29 01:43:15;;;;;;;18.13;11.37;;;0.30;1.00;;;;;;5013569;28;20470;-61
2021/11/29 01:45:44;;;;;;;22.00;11.67;;;0.30;1.00;;;;;;5014009;28;20501;-61
2021/11/29 01:48:11;;;;;;;20.73;11.63;;;0.30;1.00;;;;;;5013538;28;20908;-62
2021/11/29 01:50:42;;;;;;;23.67;10.80;;;0.40;1.00;;;;;;5013672;28;20547;-62
2021/11/29 01:53:10;;;;;;;19.77;11.90;;;0.40;1.00;;;;;;5013186;28;20532;-61
2021/11/29 01:55:39;;;;;;;17.97;10.90;;;0.40;1.00;;;;;;5013503;28;20946;-62
2021/11/29 01:58:07;;;;;;;17.30;11.30;;;0.40;1.00;;;;;;5013657;28;20455;-62
2021/11/29 02:00:37;;;;;;;17.67;10.33;;;0.40;1.00;;;;;;5013437;28;20455;-62
2021/11/29 02:03:04;;;;;;;14.20;9.47;;;0.40;1.00;;;;;;5013076;28;21051;-61
2021/11/29 02:05:31;;;;;;;19.63;11.30;;;0.40;1.00;;;;;;5013483;28;20456;-61
2021/11/29 02:08:00;;;;;;;19.50;9.77;;;0.50;1.00;;;;;;5013544;28;20490;-61
2021/11/29 02:10:28;;;;;;;16.17;10.30;;;0.50;1.00;;;;;;5012466;28;20824;-61
2021/11/29 02:12:54;;;;;;;18.93;9.80;;;0.50;1.00;;;;;;5012882;28;20471;-61
2021/11/29 02:15:21;;;;;;;18.27;10.17;;;0.50;1.00;;;;;;5013202;28;20469;-61
2021/11/29 02:17:49;;;;;;;23.50;10.63;;;0.50;1.00;;;;;;5012974;28;20503;-62
2021/11/29 02:20:17;;;;;;;21.47;10.63;;;0.50;1.00;;;;;;5013405;28;20455;-61
2021/11/29 02:22:45;;;;;;;21.67;10.70;;;0.50;1.00;;;;;;5012664;28;20475;-62
2021/11/29 02:25:12;;;;;;;18.40;10.23;;;0.50;1.00;;;;;;5013063;28;21191;-62
2021/11/29 02:27:42;;;;;;;19.07;10.13;;;0.40;1.00;;;;;;5013008;28;20494;-61
2021/11/29 02:30:10;;;;;;;18.60;9.93;;;0.40;1.00;;;;;;5012766;28;20859;-61
2021/11/29 02:32:36;;;;;;;28.57;10.27;;;0.40;1.00;;;;;;5012396;28;20481;-62
2021/11/29 02:35:03;;;;;;;19.80;10.00;;;0.40;1.00;;;;;;5012772;28;20521;-61
2021/11/29 02:37:30;;;;;;;19.57;10.30;;;0.40;1.00;;;;;;5012996;28;20454;-61
2021/11/29 02:39:58;;;;;;;15.50;8.93;;;0.40;1.00;;;;;;5012851;28;20498;-60
2021/11/29 02:42:26;;;;;;;20.13;9.67;;;0.30;1.00;;;;;;5012566;28;20553;-61
2021/11/29 02:44:52;;;;;;;18.30;9.50;;;0.40;1.00;;;;;;5012548;28;20460;-61
2021/11/29 02:47:19;;;;;;;16.90;10.30;;;0.50;1.00;;;;;;5012533;28;20458;-62
2021/11/29 02:49:47;;;;;;;17.47;8.90;;;0.50;1.00;;;;;;5013375;28;20964;-62
2021/11/29 02:52:16;;;;;;;17.07;9.77;;;0.50;1.00;;;;;;5012267;28;20955;-61
2021/11/29 02:54:44;;;;;;;16.30;10.17;;;0.50;1.00;;;;;;5012712;28;20458;-62
2021/11/29 02:57:15;;;;;;;16.43;10.17;;;0.50;1.00;;;;;;5012564;28;20451;-62
2021/11/29 02:59:42;;;;;;;16.67;10.50;;;0.50;1.00;;;;;;5012376;28;20882;-61
2021/11/29 03:02:11;;;;;;;18.83;10.10;;;0.50;1.00;;;;;;5012273;28;20464;-62
2021/11/29 03:04:39;;;;;;;18.23;10.00;;;0.60;1.00;;;;;;5012493;28;20455;-61
2021/11/29 03:07:07;;;;;;;18.57;11.03;;;0.50;1.00;;;;;;5012331;28;20451;-60
2021/11/29 03:09:34;;;;;;;16.43;10.10;;;0.50;1.00;;;;;;5012229;28;20490;-61
2021/11/29 03:12:01;;;;;;;16.47;10.27;;;0.50;1.00;;;;;;5011717;28;20485;-61
2021/11/29 03:14:29;;;;;;;14.23;9.73;;;0.50;1.00;;;;;;5012469;28;20510;-61
2021/11/29 03:16:57;;;;;;;17.73;9.40;;;0.50;1.00;;;;;;5012378;28;20445;-62
2021/11/29 03:19:28;;;;;;;18.17;9.53;;;0.50;1.00;;;;;;5012451;28;20789;-61
2021/11/29 03:21:55;;;;;;;15.17;9.77;;;0.50;1.00;;;;;;5011465;28;20503;-61
2021/11/29 03:24:21;;;;;;;18.83;9.97;;;0.40;1.00;;;;;;5012194;28;20453;-62
2021/11/29 03:26:48;;;;;;;14.23;9.37;;;0.50;1.00;;;;;;5012311;28;20502;-61
2021/11/29 03:29:19;;;;;;;18.27;9.17;;;0.50;1.00;;;;;;5012279;28;20491;-62
2021/11/29 03:31:51;;;;;;;12.53;9.03;;;0.40;1.00;;;;;;5011789;28;20870;-62
2021/11/29 03:34:19;;;;;;;16.57;8.87;;;0.40;1.00;;;;;;5012068;28;20498;-61
2021/11/29 03:36:47;;;;;;;14.00;9.77;;;0.40;1.00;;;;;;5012113;28;20458;-62
2021/11/29 03:39:16;;;;;;;15.07;9.67;;;0.40;1.00;;;;;;5011822;28;20450;-62
2021/11/29 03:41:44;;;;;;;13.90;9.00;;;0.40;1.00;;;;;;5011859;28;20451;-61
2021/11/29 03:44:11;;;;;;;16.63;8.73;;;0.50;1.00;;;;;;5012074;28;20497;-61
2021/11/29 03:46:38;;;;;;;14.03;9.43;;;0.50;1.00;;;;;;5012077;28;20456;-61
2021/11/29 03:49:06;;;;;;;15.90;9.33;;;0.50;1.00;;;;;;5011943;28;20896;-62
2021/11/29 03:51:33;;;;;;;16.93;10.37;;;0.50;1.00;;;;;;5011446;28;20450;-61
2021/11/29 03:53:59;;;;;;;13.57;10.00;;;0.50;1.00;;;;;;5011968;28;20509;-61
2021/11/29 03:56:26;;;;;;;11.73;9.00;;;0.60;1.00;;;;;;5012160;28;20453;-62
2021/11/29 03:58:53;;;;;;;16.70;9.10;;;0.60;1.00;;;;;;5012268;28;20530;-61
2021/11/29 04:01:20;;;;;;;16.03;9.07;;;0.60;1.00;;;;;;5011624;28;20453;-61
2021/11/29 04:03:47;;;;;;;15.73;8.40;;;0.60;1.00;;;;;;5011938;28;20475;-61
2021/11/29 04:06:15;;;;;;;13.47;8.27;;;0.70;1.00;;;;;;5011601;28;20460;-61
2021/11/29 04:08:41;;;;;;;14.07;9.20;;;0.70;1.00;;;;;;5011980;28;20888;-61
2021/11/29 04:11:08;;;;;;;11.47;7.93;;;0.70;1.00;;;;;;5011442;28;20448;-61
2021/11/29 04:13:36;;;;;;;12.97;8.47;;;0.70;1.00;;;;;;5011808;28;21233;-61
2021/11/29 04:16:03;;;;;;;15.87;8.20;;;0.70;1.00;;;;;;5011849;28;20458;-61
2021/11/29 04:18:30;;;;;;;14.60;7.57;;;0.70;1.00;;;;;;5011678;28;20522;-61
2021/11/29 04:20:57;;;;;;;11.73;7.50;;;0.70;1.00;;;;;;5011665;28;20455;-61
2021/11/29 04:23:25;;;;;;;10.33;7.10;;;0.70;1.00;;;;;;5011305;28;20529;-61
2021/11/29 04:25:55;;;;;;;8.73;6.50;;;0.70;1.00;;;;;;5011806;28;20455;-61
2021/11/29 04:28:22;;;;;;;8.67;7.10;;;0.70;1.00;;;;;;5011501;28;20987;-61
2021/11/29 04:30:49;;;;;;;10.77;7.20;;;0.70;1.00;;;;;;5011625;28;20451;-61
2021/11/29 04:33:15;;;;;;;9.93;7.60;;;0.60;1.00;;;;;;5012918;28;20844;-61
2021/11/29 04:35:42;;;;;;;10.03;7.47;;;0.60;1.00;;;;;;5014892;28;21018;-61
2021/11/29 04:38:09;;;;;;;12.93;7.10;;;0.60;1.00;;;;;;5015202;28;20935;-61
2021/11/29 04:40:37;;;;;;;9.47;7.17;;;0.60;1.00;;;;;;5015105;28;20514;-61
2021/11/29 04:43:04;;;;;;;11.53;7.23;;;0.50;1.00;;;;;;5014642;28;20524;-61
2021/11/29 04:45:30;;;;;;;11.53;6.73;;;0.50;1.00;;;;;;5015003;28;20448;-61
2021/11/29 04:47:58;;;;;;;11.03;6.53;;;0.40;1.00;;;;;;5014661;28;20796;-61
2021/11/29 04:50:24;;;;;;;8.90;6.40;;;0.40;1.00;;;;;;5015013;28;20455;-61
2021/11/29 04:52:51;;;;;;;9.83;6.87;;;0.40;1.00;;;;;;5014441;28;20467;-61
2021/11/29 04:55:18;;;;;;;14.67;9.27;;;0.40;1.00;;;;;;5015409;28;20457;-60
2021/11/29 04:57:46;;;;;;;11.03;6.67;;;0.40;1.00;;;;;;5015297;28;20456;-60
2021/11/29 05:00:15;;;;;;;9.10;6.83;;;0.30;1.00;;;;;;5014830;28;20985;-61
2021/11/29 05:02:42;;;;;;;12.63;7.13;;;0.20;1.00;;;;;;5014423;28;20834;-61
2021/11/29 05:05:09;;;;;;;10.17;6.83;;;0.20;1.00;;;;;;5014888;28;20453;-61
2021/11/29 05:07:36;;;;;;;9.20;6.83;;;0.20;1.00;;;;;;5014817;28;20494;-60
2021/11/29 05:10:03;;;;;;;11.00;7.00;;;0.30;1.00;;;;;;5014917;28;20486;-60
2021/11/29 05:12:30;;;;;;;13.30;8.17;;;0.30;1.00;;;;;;5014705;28;20530;-61
2021/11/29 05:14:58;;;;;;;11.33;7.80;;;0.30;1.00;;;;;;5014542;28;20487;-61
2021/11/29 05:17:25;;;;;;;11.20;7.47;;;0.30;1.00;;;;;;5014778;28;20457;-61
2021/11/29 05:19:53;;;;;;;9.90;7.00;;;0.40;1.00;;;;;;5014559;28;20503;-61
2021/11/29 05:22:20;;;;;;;13.73;8.20;;;0.40;1.00;;;;;;5013867;28;20527;-60
2021/11/29 05:24:47;;;;;;;13.60;8.00;;;0.40;1.00;;;;;;5011539;28;20492;-61
2021/11/29 05:27:14;;;;;;;10.17;8.30;;;0.40;1.00;;;;;;5012734;28;20457;-61
2021/11/29 05:29:41;;;;;;;14.73;8.60;;;0.40;1.00;;;;;;5013869;28;20540;-61
2021/11/29 05:32:10;;;;;;;15.50;9.67;;;0.40;1.00;;;;;;5013423;28;20479;-61
2021/11/29 05:34:36;;;;;;;13.27;8.00;;;0.50;1.00;;;;;;5014390;28;20457;-60
2021/11/29 05:37:03;;;;;;;13.60;9.27;;;0.50;1.00;;;;;;5014539;28;20497;-58
2021/11/29 05:39:30;;;;;;;15.60;8.20;;;0.50;7.50;;;;;;5014413;28;20449;-59
2021/11/29 05:41:56;;;;;;;11.47;8.20;;;0.50;7.90;;;;;;5012694;28;20819;-58
2021/11/29 05:44:23;;;;;;;11.53;8.53;;;0.60;10.70;;;;;;5013283;28;20483;-57
2021/11/29 05:46:50;;;;;;;11.93;8.63;;;0.60;9.80;;;;;;5013820;28;20451;-59
2021/11/29 05:49:18;;;;;;;13.30;7.33;;;0.60;11.80;;;;;;5013045;28;20487;-59
2021/11/29 05:51:44;;;;;;;12.50;7.73;;;0.60;10.40;;;;;;5013237;28;20536;-59
2021/11/29 05:54:11;;;;;;;10.23;7.67;;;0.60;7.60;;;;;;5013502;28;20471;-59
2021/11/29 05:56:38;;;;;;;13.33;8.93;;;0.60;1.00;;;;;;5013115;28;20446;-59
2021/11/29 05:59:04;;;;;;;9.50;7.33;;;0.60;1.00;;;;;;5013496;28;20476;-59
2021/11/29 06:01:31;;;;;;;12.40;8.10;;;0.60;1.00;;;;;;5013101;28;20859;-54
2021/11/29 06:03:58;;;;;;;12.60;8.03;;;0.60;1.00;;;;;;5013498;28;20476;-58
2021/11/29 06:06:26;;;;;;;11.23;7.70;;;0.60;3.60;;;;;;5013493;28;20444;-60
2021/11/29 06:08:52;;;;;;;11.93;7.03;;;0.60;19.50;;;;;;5013167;28;20917;-60
2021/11/29 06:11:19;;;;;;;10.97;7.63;;;0.70;6.20;;;;;;5012242;28;20445;-61
2021/11/29 06:13:46;;;;;;;12.33;8.17;;;0.70;2.40;;;;;;5013055;28;21004;-60
2021/11/29 06:16:13;;;;;;;8.53;7.23;;;0.70;2.20;;;;;;5013287;28;20572;-61
2021/11/29 06:18:40;;;;;;;11.03;7.43;;;0.70;2.10;;;;;;5008253;28;20504;-61
2021/11/29 06:21:07;;;;;;;11.97;7.50;;;0.70;9.60;;;;;;5010106;28;20462;-61
2021/11/29 06:23:37;;;;;;;12.80;7.17;;;0.70;1.00;;;;;;5012525;28;20483;-63
2021/11/29 06:26:04;;;;;;;8.53;6.07;;;0.70;8.00;;;;;;5012744;28;20457;-59
2021/11/29 06:28:31;;;;;;;11.67;7.70;;;0.70;5.80;;;;;;5012716;28;20455;-60
2021/11/29 06:30:58;;;;;;;11.80;6.53;;;0.70;8.30;;;;;;5012261;28;20451;-60
2021/11/29 06:33:24;;;;;;;8.70;6.47;;;0.80;8.60;;;;;;5012290;28;20475;-60
2021/11/29 06:35:53;;;;;;;9.90;7.13;;;0.80;1.00;;;;;;5012152;28;20476;-60
2021/11/29 06:38:20;;;;;;;10.60;6.30;;;0.80;1.00;;;;;;5012244;28;20828;-58
2021/11/29 06:40:50;;;;;;;8.93;7.00;;;0.80;1.00;;;;;;5012254;28;20456;-59
2021/11/29 06:43:18;;;;;;;8.60;6.33;;;0.90;1.00;;;;;;5011921;28;20480;-60
2021/11/29 06:45:44;;;;;;;12.13;6.40;;;0.90;1.00;;;;;;5012447;28;20455;-58
2021/11/29 06:48:11;;;;;;;11.13;7.40;;;0.90;1.00;;;;;;5012172;28;20987;-59
2021/11/29 06:50:38;;;;;;;9.47;6.73;;;0.90;1.00;;;;;;5011879;28;20835;-58
2021/11/29 06:53:05;;;;;;;10.50;6.23;;;0.90;1.00;;;;;;5011526;28;20512;-58
2021/11/29 06:55:33;;;;;;;10.33;6.67;;;0.90;1.00;;;;;;5011776;28;20460;-61
2021/11/29 06:58:02;;;;;;;8.53;6.97;;;0.80;11.50;;;;;;5011866;28;21003;-57
2021/11/29 07:00:29;;;;;;;9.13;6.17;;;0.80;22.30;;;;;;5011563;28;20925;-58
2021/11/29 07:02:56;;;;;;;14.13;6.30;;;0.90;27.00;;;;;;5012027;28;20503;-57
2021/11/29 07:05:26;;;;;;;9.07;6.07;;;0.90;30.80;;;;;;5011682;28;21195;-59
2021/11/29 07:07:53;;;;;;;7.77;5.87;;;0.90;32.50;;;;;;5011942;28;20463;-61
2021/11/29 07:10:21;;;;;;;8.30;6.13;;;0.90;34.30;;;;;;5011688;28;20488;-60
2021/11/29 07:12:48;;;;;;;7.63;5.73;;;0.90;35.70;;;;;;5011528;28;20473;-60
2021/11/29 07:15:16;;;;;;;9.03;5.63;;;1.00;39.10;;;;;;5011864;28;20465;-59
2021/11/29 07:17:43;;;;;;;7.23;5.70;;;1.00;38.50;;;;;;5010982;28;20447;-59
2021/11/29 07:20:11;;;;;;;11.30;6.80;;;0.90;42.30;;;;;;5015249;28;20525;-59
2021/11/29 07:22:38;;;;;;;9.03;6.23;;;0.90;50.60;;;;;;5011755;28;20477;-61
2021/11/29 07:25:06;;;;;;;10.60;6.73;;;0.80;56.00;;;;;;5011581;28;20840;-61
2021/11/29 07:27:34;;;;;;;9.20;7.40;;;0.80;64.80;;;;;;5011777;28;20954;-62
2021/11/29 07:30:02;;;;;;;7.93;6.73;;;0.90;74.70;;;;;;5011319;28;20494;-61
2021/11/29 07:32:30;;;;;;;8.17;6.57;;;0.80;79.10;;;;;;5011400;28;20472;-62
2021/11/29 07:34:57;;;;;;;11.80;6.70;;;0.90;92.00;;;;;;5011521;28;20463;-59
2021/11/29 07:37:24;;;;;;;9.60;7.60;;;0.90;92.70;;;;;;5011532;28;20454;-60
2021/11/29 07:39:52;;;;;;;9.67;7.63;;;0.90;94.30;;;;;;5011260;28;20455;-60
2021/11/29 07:42:19;;;;;;;11.60;7.17;;;0.90;99.90;;;;;;5011054;28;20483;-61
2021/11/29 07:44:46;;;;;;;10.33;6.80;;;0.90;99.90;;;;;;5011562;28;20482;-59
2021/11/29 07:47:13;;;;;;;9.47;7.87;;;0.90;99.90;;;;;;5011176;28;20515;-61
2021/11/29 07:49:41;;;;;;;7.63;6.73;;;0.90;99.90;;;;;;5010976;28;20489;-60
2021/11/29 07:52:09;;;;;;;11.50;7.83;;;1.00;99.90;;;;;;5010976;28;20474;-61
2021/11/29 07:54:35;;;;;;;11.37;7.43;;;0.90;99.90;;;;;;5011425;28;20539;-59
2021/11/29 07:57:02;;;;;;;6.93;5.23;;;1.00;99.90;;;;;;5011502;28;20481;-60
2021/11/29 07:59:29;;;;;;;9.80;6.97;;;1.00;99.90;;;;;;5010783;28;20451;-59
2021/11/29 08:01:58;;;;;;;8.10;6.33;;;1.00;99.90;;;;;;5010543;28;20461;-60
2021/11/29 08:04:25;;;;;;;10.67;7.77;;;1.00;99.90;;;;;;5011646;28;20484;-59
2021/11/29 08:06:53;;;;;;;12.47;7.40;;;1.00;99.90;;;;;;5011382;28;20500;-58
2021/11/29 08:09:20;;;;;;;11.87;8.30;;;1.00;99.90;;;;;;5014416;28;20511;-58
2021/11/29 08:11:46;;;;;;;10.07;6.93;;;1.00;99.90;;;;;;5014210;28;20975;-57
2021/11/29 08:14:13;;;;;;;9.90;7.30;;;1.00;99.90;;;;;;5014759;28;20882;-57
2021/11/29 08:16:40;;;;;;;9.57;7.67;;;1.00;99.90;;;;;;5015105;28;20968;-58
2021/11/29 08:19:07;;;;;;;12.30;7.53;;;1.10;99.90;;;;;;5014796;28;20460;-59
2021/11/29 08:21:33;;;;;;;12.87;8.80;;;1.10;99.90;;;;;;5014170;28;20459;-58
2021/11/29 08:24:01;;;;;;;12.57;6.67;;;1.10;99.90;;;;;;5014565;28;20942;-60
2021/11/29 08:26:28;;;;;;;9.97;7.50;;;1.10;99.90;;;;;;5014540;28;20445;-64
2021/11/29 08:28:55;;;;;;;10.37;7.80;;;1.30;99.90;;;;;;5014625;28;20475;-57
2021/11/29 08:31:22;;;;;;;10.90;7.33;;;1.60;99.90;;;;;;5013865;28;20450;-55
2021/11/29 08:33:49;;;;;;;14.53;7.77;;;1.60;99.90;;;;;;5014476;28;20534;-54
2021/11/29 08:36:15;;;;;;;10.80;7.57;;;1.50;99.90;;;;;;5014281;28;20518;-59
2021/11/29 08:38:42;;;;;;;12.50;8.60;;;1.50;99.90;;;;;;5014455;28;20507;-58
2021/11/29 08:41:10;;;;;;;10.53;8.27;;;1.50;99.90;;;;;;5013449;28;20456;-60
2021/11/29 08:43:38;;;;;;;11.27;7.20;;;1.50;99.90;;;;;;5014283;28;20478;-56
2021/11/29 08:46:05;;;;;;;8.83;7.43;;;1.50;85.30;;;;;;5014232;28;20463;-56
2021/11/29 08:48:32;;;;;;;13.00;7.67;;;1.40;31.70;;;;;;5014633;28;20454;-57
2021/11/29 08:50:58;;;;;;;15.63;8.83;;;1.40;23.00;;;;;;5013630;28;20488;-58
2021/11/29 08:53:27;;;;;;;10.87;8.47;;;1.40;20.60;;;;;;5013643;28;20503;-64
2021/11/29 08:55:55;;;;;;;13.90;9.50;;;1.40;19.60;;;;;;5014079;28;20451;-56
2021/11/29 08:58:24;;;;;;;15.63;8.30;;;1.50;18.70;;;;;;5014694;28;20458;-58
2021/11/29 09:00:53;;;;;;;9.63;7.97;;;1.50;17.80;;;;;;5013824;28;20802;-58
2021/11/29 09:03:20;;;;;;;13.77;8.60;;;1.50;15.30;;;;;;5013861;28;20532;-58
2021/11/29 09:05:48;;;;;;;13.43;10.30;;;1.40;15.90;;;;;;5013925;28;20460;-58
2021/11/29 09:08:15;;;;;;;14.83;10.13;;;1.50;21.60;;;;;;5021986;28;20449;-59
2021/11/29 09:10:43;;;;;;;14.53;9.80;;;1.50;25.90;;;;;;5029249;28;21291;-57
2021/11/29 09:13:10;;;;;;;13.97;10.20;;;1.50;27.80;;;;;;5033469;28;20477;-59
2021/11/29 09:15:41;;;;;;;14.33;10.43;;;1.50;28.10;;;;;;5033712;28;20456;-57
2021/11/29 09:18:08;;;;;;;19.97;11.47;;;1.50;22.00;;;;;;5033058;28;20548;-57
2021/11/29 09:20:35;;;;;;;18.07;12.27;;;1.50;22.60;;;;;;5029248;28;20446;-55
2021/11/29 09:23:03;;;;;;;14.57;10.63;;;1.50;21.70;;;;;;5013474;28;20479;-56
2021/11/29 09:25:30;;;;;;;15.37;11.63;;;1.50;9.90;;;;;;5013949;28;20468;-55
2021/11/29 09:27:57;;;;;;;15.80;11.70;;;1.50;6.10;;;;;;5013516;28;20452;-57
2021/11/29 09:30:24;;;;;;;15.43;10.80;;;1.40;5.90;;;;;;5013198;28;20577;-56
2021/11/29 09:32:53;;;;;;;21.43;13.30;;;1.50;9.30;;;;;;5013278;28;20837;-57
2021/11/29 09:35:20;;;;;;;17.40;13.23;;;1.50;5.50;;;;;;5013090;28;20484;-59
2021/11/29 09:37:48;;;;;;;19.47;12.47;;;1.40;1.70;;;;;;5013492;28;20483;-58
2021/11/29 09:40:19;;;;;;;18.23;13.00;;;1.40;4.40;;;;;;5012887;28;20532;-58
2021/11/29 09:42:45;;;;;;;18.50;13.13;;;1.40;6.80;;;;;;5013299;28;20481;-61
2021/11/29 09:45:14;;;;;;;15.67;12.27;;;1.40;14.40;;;;;;5013323;28;20480;-59
2021/11/29 09:47:41;;;;;;;17.37;12.23;;;1.40;25.00;;;;;;5013502;28;20463;-58
2021/11/29 09:50:10;;;;;;;21.53;14.30;;;1.40;42.80;;;;;;5012650;28;20806;-56
2021/11/29 09:52:37;;;;;;;19.50;13.40;;;1.40;59.80;;;;;;5012771;28;20475;-54
2021/11/29 09:55:06;;;;;;;23.40;15.73;;;1.40;80.80;;;;;;5013454;28;20463;-59
2021/11/29 09:57:33;;;;;;;22.27;16.90;;;1.40;95.60;;;;;;5012953;28;20509;-58
2021/11/29 10:00:00;;;;;;;23.13;15.93;;;1.40;99.90;;;;;;5012843;28;20459;-59
2021/11/29 10:02:27;;;;;;;28.60;16.30;;;1.50;99.90;;;;;;5012487;28;20527;-58
2021/11/29 10:04:53;;;;;;;32.13;17.83;;;1.60;99.90;;;;;;5013085;28;20446;-61
2021/11/29 10:07:32;;;;;;;24.07;17.30;;;1.60;99.90;;;;;;5012982;28;20529;-59
2021/11/29 10:10:10;;;;;;;24.23;17.50;;;1.60;99.90;;;;;;5012682;28;20492;-57
2021/11/29 10:12:37;;;;;;;28.87;18.03;;;1.50;99.90;;;;;;5012462;28;20969;-59
2021/11/29 10:15:22;;;;;;;27.63;19.10;;;1.60;99.90;;;;;;5012693;28;20454;-58
2021/11/29 10:17:51;;;;;;;28.33;20.23;;;1.60;99.90;;;;;;5013428;28;20839;-59
2021/11/29 10:20:18;;;;;;;29.60;18.33;;;1.70;99.90;;;;;;5012446;28;21067;-59
2021/11/29 10:22:58;;;;;;;31.10;19.90;;;1.70;99.90;;;;;;5012412;28;20482;-60
2021/11/29 10:25:25;;;;;;;26.80;18.57;;;1.70;99.90;;;;;;5012307;28;20445;-61
2021/11/29 10:27:53;;;;;;;31.93;20.77;;;1.80;99.90;;;;;;5012849;28;20448;-60
2021/11/29 10:30:24;;;;;;;31.90;20.97;;;1.80;99.90;;;;;;5011519;28;20884;-59
2021/11/29 10:32:51;;;;;;;33.80;20.53;;;1.90;99.90;;;;;;5012120;28;20524;-61
2021/11/29 10:35:32;;;;;;;34.47;21.90;;;1.90;99.90;;;;;;5012167;28;20462;-59
2021/11/29 10:38:00;;;;;;;31.23;21.43;;;1.90;99.90;;;;;;5011813;28;20454;-59
2021/11/29 10:40:27;;;;;;;31.20;20.97;;;1.90;99.90;;;;;;5012039;28;20831;-59
2021/11/29 10:42:54;;;;;;;34.10;20.93;;;2.00;99.90;;;;;;5012224;28;20478;-57
2021/11/29 10:45:24;;;;;;;32.80;21.60;;;2.00;99.90;;;;;;5012159;28;20461;-62
2021/11/29 10:47:53;;;;;;;39.53;21.80;;;2.10;99.90;;;;;;5012193;28;20883;-60
2021/11/29 10:50:24;;;;;;;34.07;20.97;;;2.10;99.90;;;;;;5011158;28;21069;-59
2021/11/29 10:53:09;;;;;;;32.57;19.83;;;2.20;99.90;;;;;;5011795;28;20993;-60
2021/11/29 10:55:58;;;;;;;28.73;18.57;;;2.10;99.90;;;;;;5012164;28;20977;-61
2021/11/29 10:58:27;;;;;;;37.83;19.83;;;2.20;99.90;;;;;;5012361;28;20824;-59
2021/11/29 11:00:55;;;;;;;29.53;18.73;;;2.20;99.90;;;;;;5011486;28;20856;-61
2021/11/29 11:03:22;;;;;;;29.33;18.90;;;2.30;99.90;;;;;;5011578;28;20962;-59
2021/11/29 11:05:59;;;;;;;23.77;16.03;;;2.40;99.90;;;;;;5011879;28;21082;-59
2021/11/29 11:08:33;;;;;;;25.50;17.23;;;2.50;99.90;;;;;;5012104;28;20872;-60
2021/11/29 11:11:00;;;;;;;23.10;15.80;;;2.50;99.90;;;;;;5011458;28;20493;-62
2021/11/29 11:13:28;;;;;;;24.33;17.07;;;2.60;99.90;;;;;;5011403;28;20509;-60
2021/11/29 11:15:55;;;;;;;24.30;17.27;;;2.60;99.90;;;;;;5012057;28;20462;-63
2021/11/29 11:18:22;;;;;;;23.90;16.53;;;2.70;99.90;;;;;;5012181;28;20454;-63
2021/11/29 11:20:49;;;;;;;22.43;15.47;;;2.60;99.90;;;;;;5010871;28;20457;-62
2021/11/29 11:23:25;;;;;;;28.33;16.57;;;2.60;99.90;;;;;;5011379;28;20585;-63
2021/11/29 11:25:53;;;;;;;24.83;16.50;;;2.60;99.90;;;;;;5011538;28;20541;-63
2021/11/29 11:28:20;;;;;;;22.63;15.70;;;2.50;99.90;;;;;;5012056;28;20461;-63
2021/11/29 11:30:47;;;;;;;27.10;16.60;;;2.50;99.90;;;;;;5011503;28;20489;-63
2021/11/29 11:33:19;;;;;;;25.70;16.20;;;2.50;99.90;;;;;;5011228;28;20528;-64
2021/11/29 11:35:49;;;;;;;24.93;16.33;;;2.50;99.90;;;;;;5011435;28;20465;-62
2021/11/29 11:38:18;;;;;;;25.70;15.33;;;2.60;99.90;;;;;;5010973;28;20462;-62
2021/11/29 11:40:48;;;;;;;24.97;14.47;;;2.60;99.90;;;;;;5011152;28;20946;-64
2021/11/29 11:43:18;;;;;;;22.93;14.63;;;2.60;99.90;;;;;;5106135;22;20865;-61
2021/11/29 11:45:47;;;;;;;23.40;13.47;;;2.60;99.90;;;;;;5035153;28;21015;-60
2021/11/29 11:48:14;;;;;;;18.83;13.90;;;2.70;99.90;;;;;;5035441;28;20449;-60
2021/11/29 11:50:43;;;;;;;19.40;13.73;;;2.60;99.90;;;;;;5034794;28;20469;-60
2021/11/29 11:53:11;;;;;;;22.17;14.13;;;2.70;99.90;;;;;;5034634;28;20469;-61
2021/11/29 11:55:39;;;;;;;23.07;14.13;;;2.70;99.90;;;;;;5035316;28;20452;-61
2021/11/29 11:58:11;;;;;;;19.63;13.93;;;2.60;99.90;;;;;;5034980;28;20459;-60
2021/11/29 12:00:42;;;;;;;20.17;13.87;;;2.70;99.90;;;;;;5034638;28;20860;-60
2021/11/29 12:03:17;;;;;;;19.13;13.47;;;2.70;99.90;;;;;;5034344;28;20840;-62
2021/11/29 12:05:53;;;;;;;20.23;13.57;;;2.80;99.90;;;;;;5035019;28;20445;-62
2021/11/29 12:08:34;;;;;;;19.17;13.73;;;2.80;98.10;;;;;;5034836;28;20448;-61
2021/11/29 12:11:04;;;;;;;22.60;13.23;;;2.90;82.20;;;;;;5034287;28;20530;-61
2021/11/29 12:13:42;;;;;;;20.70;14.10;;;2.90;58.20;;;;;;5034462;28;20542;-62
2021/11/29 12:16:10;;;;;;;22.97;14.70;;;2.90;59.10;;;;;;5035228;28;20242;-60
2021/11/29 12:18:47;;;;;;;20.63;15.53;;;2.90;67.40;;;;;;5034740;28;20449;-63
2021/11/29 12:21:19;;;;;;;20.73;12.67;;;3.00;72.70;;;;;;5033720;28;20999;-62
2021/11/29 12:23:50;;;;;;;17.13;13.03;;;3.10;68.90;;;;;;5034809;28;20491;-61
2021/11/29 12:26:17;;;;;;;19.17;12.90;;;3.10;47.80;;;;;;5034221;28;20499;-61
2021/11/29 12:28:46;;;;;;;16.17;12.17;;;3.10;34.90;;;;;;5034804;28;20449;-61
2021/11/29 12:31:36;;;;;;;15.17;10.87;;;3.20;27.50;;;;;;5033763;28;20481;-61
2021/11/29 12:34:05;;;;;;;15.23;10.43;;;3.10;18.70;;;;;;5034721;28;20605;-61
2021/11/29 12:37:05;;;;;;;15.13;10.50;;;3.10;1.00;;;;;;5034509;28;20449;-62
2021/11/29 12:39:50;;;;;;;16.60;9.80;;;3.10;1.00;;;;;;5006847;28;20484;-62
2021/11/29 12:43:00;;;;;;;13.80;9.10;;;3.20;1.00;;;;;;5032342;28;20549;-58
2021/11/29 12:45:29;;;;;;;12.37;9.97;;;3.20;1.00;;;;;;5034453;28;20741;-63
2021/11/29 12:48:09;;;;;;;11.23;9.37;;;3.20;1.00;;;;;;5034558;28;20215;-62
2021/11/29 12:50:39;;;;;;;15.33;8.87;;;3.30;1.00;;;;;;5033332;28;20456;-60
2021/11/29 12:53:13;;;;;;;11.53;8.67;;;3.30;1.00;;;;;;5032936;28;20476;-60